createdAt,value
2022-08-30T00:01:28.739Z,6.70
2022-08-30T00:04:01.228Z,6.30
2022-08-30T00:06:33.241Z,5.90
2022-08-30T00:09:04.752Z,6.10
2022-08-30T00:11:35.385Z,6.20
2022-08-30T00:14:05.166Z,5.90
2022-08-30T00:16:36.759Z,7.30
2022-08-30T00:19:07.903Z,6.30
2022-08-30T00:21:36.205Z,7.00
2022-08-30T00:24:05.274Z,6.10
2022-08-30T00:26:38.844Z,6.60
2022-08-30T00:29:06.865Z,6.00
2022-08-30T00:31:34.884Z,5.30
2022-08-30T00:34:06.339Z,5.70
2022-08-30T00:36:41.223Z,5.70
2022-08-30T00:39:09.124Z,5.40
2022-08-30T00:41:42.454Z,6.10
2022-08-30T00:44:13.985Z,5.30
2022-08-30T00:46:42.562Z,5.60
2022-08-30T00:49:16.294Z,5.90
2022-08-30T00:51:48.225Z,5.00
2022-08-30T00:54:20.166Z,5.50
2022-08-30T00:56:52.955Z,5.60
2022-08-30T00:59:25.935Z,6.40
2022-08-30T01:01:57.830Z,5.60
2022-08-30T01:04:31.523Z,5.20
2022-08-30T01:07:03.632Z,5.10
2022-08-30T01:09:35.371Z,5.80
2022-08-30T01:12:06.717Z,5.20
2022-08-30T01:14:38.439Z,5.80
2022-08-30T01:17:10.364Z,6.40
2022-08-30T01:19:51.615Z,6.80
2022-08-30T01:22:36.890Z,7.00
2022-08-30T01:25:09.276Z,5.90
2022-08-30T01:28:05.368Z,6.20
2022-08-30T01:30:39.262Z,6.80
2022-08-30T01:33:11.788Z,7.20
2022-08-30T01:35:49.752Z,7.00
2022-08-30T01:38:23.741Z,6.90
2022-08-30T01:41:00.564Z,7.40
2022-08-30T01:43:29.213Z,7.50
2022-08-30T01:45:57.685Z,7.00
2022-08-30T01:48:32.835Z,6.90
2022-08-30T01:51:09.959Z,7.30
2022-08-30T01:53:43.006Z,6.50
2022-08-30T01:56:15.708Z,6.40
2022-08-30T01:58:47.399Z,7.50
2022-08-30T02:01:22.439Z,6.10
2022-08-30T02:03:52.025Z,5.20
2022-08-30T02:06:25.082Z,7.10
2022-08-30T02:08:53.065Z,5.50
2022-08-30T02:11:24.028Z,5.10
2022-08-30T02:13:51.868Z,4.80
2022-08-30T02:16:25.808Z,5.50
2022-08-30T02:18:58.150Z,4.90
2022-08-30T02:21:29.807Z,5.60
2022-08-30T02:24:01.799Z,5.80
2022-08-30T02:26:29.543Z,5.20
2022-08-30T02:29:00.366Z,5.20
2022-08-30T02:31:29.302Z,6.40
2022-08-30T02:33:57.119Z,7.50
2022-08-30T02:36:25.852Z,6.60
2022-08-30T02:38:57.305Z,7.80
2022-08-30T02:41:25.412Z,7.30
2022-08-30T02:43:58.565Z,6.90
2022-08-30T02:46:33.435Z,7.60
2022-08-30T02:49:32.491Z,7.20
2022-08-30T02:52:06.900Z,6.70
2022-08-30T02:54:37.224Z,6.90
2022-08-30T02:57:20.315Z,6.80
2022-08-30T02:59:57.398Z,6.40
2022-08-30T03:02:30.409Z,6.50
2022-08-30T03:05:02.516Z,5.70
2022-08-30T03:07:35.361Z,6.30
2022-08-30T03:10:07.224Z,5.50
2022-08-30T03:12:34.995Z,5.40
2022-08-30T03:15:07.059Z,6.10
2022-08-30T03:17:37.549Z,5.70
2022-08-30T03:20:09.790Z,6.30
2022-08-30T03:22:41.748Z,7.40
2022-08-30T03:25:23.257Z,7.30
2022-08-30T03:27:55.110Z,7.40
2022-08-30T03:30:22.911Z,7.60
2022-08-30T03:32:54.748Z,6.70
2022-08-30T03:35:24.765Z,6.50
2022-08-30T03:37:56.254Z,7.10
2022-08-30T03:40:29.365Z,7.50
2022-08-30T03:42:59.827Z,7.40
2022-08-30T03:45:33.255Z,7.10
2022-08-30T03:48:05.808Z,7.30
2022-08-30T03:50:39.093Z,8.10
2022-08-30T03:53:06.988Z,7.70
2022-08-30T03:55:34.956Z,7.10
2022-08-30T03:58:02.841Z,7.30
2022-08-30T04:00:32.910Z,8.00
2022-08-30T04:03:00.875Z,7.70
2022-08-30T04:05:29.103Z,9.20
2022-08-30T04:07:59.697Z,7.00
2022-08-30T04:10:27.591Z,7.30
2022-08-30T04:13:02.183Z,7.60
2022-08-30T04:15:30.125Z,8.40
2022-08-30T04:17:58.818Z,7.50
2022-08-30T04:20:30.323Z,7.90
2022-08-30T04:23:03.044Z,7.80
2022-08-30T04:25:30.773Z,7.80
2022-08-30T04:27:58.532Z,7.60
2022-08-30T04:30:26.273Z,8.30
2022-08-30T04:32:58.883Z,8.10
2022-08-30T04:35:31.074Z,8.30
2022-08-30T04:38:02.951Z,7.80
2022-08-30T04:40:30.889Z,8.00
2022-08-30T04:43:06.591Z,8.50
2022-08-30T04:45:34.590Z,8.20
2022-08-30T04:48:02.839Z,8.40
2022-08-30T04:50:33.139Z,7.60
2022-08-30T04:53:00.917Z,7.80
2022-08-30T04:55:28.693Z,8.20
2022-08-30T04:57:57.176Z,7.10
2022-08-30T05:00:25.153Z,6.70
2022-08-30T05:02:52.879Z,5.90
2022-08-30T05:05:39.686Z,6.90
2022-08-30T05:08:13.620Z,6.30
2022-08-30T05:10:47.819Z,6.50
2022-08-30T05:13:21.034Z,6.90
2022-08-30T05:15:57.986Z,6.40
2022-08-30T05:18:28.623Z,7.20
2022-08-30T05:21:16.469Z,7.30
2022-08-30T05:23:46.539Z,6.60
2022-08-30T05:26:25.247Z,6.10
2022-08-30T05:28:56.338Z,7.10
2022-08-30T05:31:30.568Z,6.50
2022-08-30T05:34:02.648Z,5.70
2022-08-30T05:36:35.205Z,7.30
2022-08-30T05:39:07.784Z,7.20
2022-08-30T05:41:39.551Z,6.20
2022-08-30T05:44:12.059Z,6.80
2022-08-30T05:46:46.883Z,6.30
2022-08-30T05:49:17.853Z,6.10
2022-08-30T05:51:45.670Z,6.90
2022-08-30T05:54:16.368Z,6.20
2022-08-30T05:56:48.796Z,6.90
2022-08-30T05:59:20.582Z,7.20
2022-08-30T06:01:48.536Z,6.20
2022-08-30T06:04:18.988Z,7.10
2022-08-30T06:06:46.749Z,7.20
2022-08-30T06:09:16.217Z,7.40
2022-08-30T06:11:49.527Z,6.60
2022-08-30T06:14:17.454Z,7.30
2022-08-30T06:16:47.027Z,7.30
2022-08-30T06:19:15.452Z,7.70
2022-08-30T06:21:48.171Z,7.80
2022-08-30T06:24:20.754Z,6.80
2022-08-30T06:26:52.631Z,7.60
2022-08-30T06:29:22.795Z,6.60
2022-08-30T06:31:50.858Z,6.80
2022-08-30T06:34:22.791Z,6.60
2022-08-30T06:36:50.668Z,6.80
2022-08-30T06:39:18.422Z,7.30
2022-08-30T06:41:46.284Z,6.50
2022-08-30T06:44:14.004Z,6.30
2022-08-30T06:46:41.809Z,6.20
2022-08-30T06:49:12.733Z,6.40
2022-08-30T06:51:40.642Z,6.90
2022-08-30T06:54:13.258Z,5.90
2022-08-30T06:56:48.682Z,6.30
2022-08-30T06:59:28.527Z,5.60
2022-08-30T07:01:58.708Z,5.70
2022-08-30T07:04:27.693Z,5.00
2022-08-30T07:06:55.430Z,5.10
2022-08-30T07:09:23.532Z,5.40
2022-08-30T07:11:55.074Z,5.00
2022-08-30T07:14:27.174Z,4.90
2022-08-30T07:16:55.144Z,5.30
2022-08-30T07:19:23.018Z,5.70
2022-08-30T07:21:50.846Z,5.50
2022-08-30T07:24:20.585Z,5.10
2022-08-30T07:26:53.751Z,5.80
2022-08-30T07:29:22.465Z,5.00
2022-08-30T07:31:53.824Z,5.20
2022-08-30T07:34:27.583Z,5.10
2022-08-30T07:36:55.454Z,4.90
2022-08-30T07:39:23.204Z,5.50
2022-08-30T07:41:51.030Z,4.90
2022-08-30T07:44:18.938Z,5.30
2022-08-30T07:46:47.534Z,4.30
2022-08-30T07:49:20.114Z,4.10
2022-08-30T07:51:48.058Z,4.10
2022-08-30T07:54:16.529Z,4.50
2022-08-30T07:56:44.275Z,5.00
2022-08-30T07:59:12.458Z,4.60
2022-08-30T08:01:40.946Z,5.20
2022-08-30T08:04:10.354Z,4.40
2022-08-30T08:06:45.328Z,4.00
2022-08-30T08:09:14.250Z,4.10
2022-08-30T08:11:42.152Z,4.50
2022-08-30T08:14:10.600Z,4.40
2022-08-30T08:16:42.448Z,4.40
2022-08-30T08:19:12.351Z,4.60
2022-08-30T08:21:40.698Z,4.50
2022-08-30T08:24:09.338Z,3.80
2022-08-30T08:26:45.407Z,4.10
2022-08-30T08:29:19.342Z,3.90
2022-08-30T08:31:47.210Z,3.70
2022-08-30T08:34:19.828Z,4.00
2022-08-30T08:36:49.292Z,4.90
2022-08-30T08:39:21.721Z,3.40
2022-08-30T08:42:07.675Z,3.70
2022-08-30T08:45:08.761Z,4.40
2022-08-30T08:48:04.208Z,4.10
2022-08-30T08:53:46.248Z,4.40
2022-08-30T08:56:19.413Z,4.80
2022-08-30T08:58:53.585Z,4.60
2022-08-30T09:01:29.239Z,5.20
2022-08-30T09:04:03.925Z,4.60
2022-08-30T09:06:45.095Z,4.50
2022-08-30T09:09:14.731Z,4.10
2022-08-30T09:11:44.498Z,3.90
2022-08-30T09:16:58.997Z,3.10
2022-08-30T09:19:51.918Z,3.40
2022-08-30T09:22:31.604Z,3.80
2022-08-30T09:25:35.918Z,3.40
2022-08-30T09:28:16.436Z,3.80
2022-08-30T09:31:21.161Z,3.40
2022-08-30T09:34:09.651Z,3.70
2022-08-30T09:36:45.185Z,4.10
2022-08-30T09:39:39.425Z,3.80
2022-08-30T09:42:26.184Z,4.20
2022-08-30T09:45:11.833Z,3.80
2022-08-30T09:47:43.890Z,3.40
2022-08-30T09:50:24.330Z,3.10
2022-08-30T09:53:01.439Z,3.90
2022-08-30T09:55:49.980Z,3.30
2022-08-30T09:58:56.025Z,4.40
2022-08-30T10:01:33.251Z,3.00
2022-08-30T10:04:05.271Z,4.10
2022-08-30T10:06:38.325Z,3.70
2022-08-30T10:09:30.250Z,3.30
2022-08-30T10:12:33.317Z,4.00
2022-08-30T10:15:27.264Z,3.60
2022-08-30T10:18:11.697Z,3.30
2022-08-30T10:21:19.097Z,3.00
2022-08-30T10:23:55.553Z,2.90
2022-08-30T10:26:23.337Z,3.20
2022-08-30T10:29:02.936Z,3.60
2022-08-30T10:31:50.135Z,3.60
2022-08-30T10:34:26.341Z,3.40
2022-08-30T10:37:05.277Z,3.50
2022-08-30T10:39:42.046Z,3.20
2022-08-30T10:42:26.539Z,2.70
2022-08-30T10:45:17.678Z,3.20
2022-08-30T10:47:56.017Z,3.30
2022-08-30T10:50:29.824Z,3.20
2022-08-30T10:53:12.440Z,3.60
2022-08-30T10:55:56.967Z,3.40
2022-08-30T10:58:25.450Z,3.30
2022-08-30T11:01:15.819Z,3.30
2022-08-30T11:03:49.649Z,3.70
2022-08-30T11:06:37.545Z,3.80
2022-08-30T11:09:28.157Z,3.50
2022-08-30T11:12:39.342Z,3.40
2022-08-30T11:15:18.072Z,3.50
2022-08-30T11:17:56.671Z,3.80
2022-08-30T11:20:34.575Z,3.00
2022-08-30T11:23:26.668Z,3.50
2022-08-30T11:29:03.478Z,3.50
2022-08-30T11:31:40.667Z,3.90
2022-08-30T11:34:10.830Z,3.60
2022-08-30T11:36:46.051Z,3.40
2022-08-30T11:39:42.522Z,2.80
2022-08-30T11:45:24.819Z,3.30
2022-08-30T11:47:59.520Z,3.40
2022-08-30T11:51:02.000Z,3.20
2022-08-30T11:54:14.683Z,3.40
2022-08-30T11:57:08.883Z,3.60
2022-08-30T11:59:44.356Z,3.70
2022-08-30T12:02:45.057Z,3.70
2022-08-30T12:05:41.039Z,3.60
2022-08-30T12:08:21.246Z,4.30
2022-08-30T12:10:58.790Z,4.20
2022-08-30T12:13:36.629Z,3.90
2022-08-30T12:16:36.175Z,4.00
2022-08-30T12:19:21.176Z,3.90
2022-08-30T12:22:02.416Z,3.40
2022-08-30T12:24:36.729Z,3.70
2022-08-30T12:27:32.640Z,3.80
2022-08-30T12:30:07.236Z,3.80
2022-08-30T12:32:50.698Z,4.00
2022-08-30T12:35:26.018Z,3.00
2022-08-30T12:38:14.539Z,3.20
2022-08-30T12:40:50.464Z,3.30
2022-08-30T12:43:49.282Z,3.50
2022-08-30T12:46:22.420Z,3.40
2022-08-30T12:48:52.573Z,3.30
2022-08-30T12:51:38.646Z,3.40
2022-08-30T12:54:23.802Z,3.70
2022-08-30T12:57:19.016Z,4.00
2022-08-30T12:59:59.646Z,4.00
2022-08-30T13:02:47.245Z,4.00
2022-08-30T13:05:34.920Z,3.60
2022-08-30T13:08:27.975Z,4.00
2022-08-30T13:11:09.164Z,3.90
2022-08-30T13:13:44.829Z,4.00
2022-08-30T13:16:18.530Z,3.50
2022-08-30T13:18:53.454Z,3.70
2022-08-30T13:21:30.031Z,3.60
2022-08-30T13:24:08.143Z,3.60
2022-08-30T13:26:41.168Z,4.10
2022-08-30T13:31:46.497Z,3.40
2022-08-30T13:34:24.089Z,3.60
2022-08-30T13:37:00.083Z,3.80
2022-08-30T13:39:28.234Z,3.80
2022-08-30T13:42:31.203Z,3.30
2022-08-30T13:44:44.317Z,3.80
2022-08-30T13:50:04.162Z,3.10
2022-08-30T13:52:34.703Z,2.70
2022-08-30T13:55:03.201Z,3.80
2022-08-30T14:00:25.197Z,3.30
2022-08-30T14:02:57.725Z,3.10
2022-08-30T14:05:50.460Z,3.00
2022-08-30T14:08:49.018Z,2.70
2022-08-30T14:11:22.870Z,3.20
2022-08-30T14:16:46.622Z,2.90
2022-08-30T14:19:16.539Z,3.30
2022-08-30T14:21:49.238Z,2.70
2022-08-30T14:24:21.570Z,3.20
2022-08-30T14:26:52.937Z,2.70
2022-08-30T14:29:31.323Z,3.20
2022-08-30T14:32:00.443Z,3.20
2022-08-30T14:34:29.571Z,2.80
2022-08-30T14:37:00.069Z,3.60
2022-08-30T14:39:28.382Z,3.20
2022-08-30T14:41:58.182Z,3.10
2022-08-30T14:44:54.719Z,3.10
2022-08-30T14:47:25.632Z,3.70
2022-08-30T14:50:02.807Z,3.60
2022-08-30T14:52:33.211Z,3.40
2022-08-30T14:55:09.157Z,3.60
2022-08-30T14:57:39.052Z,3.80
2022-08-30T15:00:12.033Z,3.00
2022-08-30T15:02:42.733Z,3.50
2022-08-30T15:05:12.137Z,3.00
2022-08-30T15:07:42.867Z,2.90
2022-08-30T15:10:16.672Z,2.70
2022-08-30T15:12:51.923Z,3.10
2022-08-30T15:15:25.643Z,3.30
2022-08-30T15:17:53.390Z,2.90
2022-08-30T15:20:23.088Z,3.30
2022-08-30T15:22:52.639Z,3.30
2022-08-30T15:25:21.377Z,3.40
2022-08-30T15:27:51.704Z,3.00
2022-08-30T15:30:21.412Z,3.20
2022-08-30T15:32:49.352Z,3.10
2022-08-30T15:35:17.209Z,3.70
2022-08-30T15:37:44.994Z,3.60
2022-08-30T15:40:14.930Z,3.90
2022-08-30T15:42:42.929Z,3.20
2022-08-30T15:45:12.177Z,3.60
2022-08-30T15:47:40.152Z,3.20
2022-08-30T15:50:10.078Z,3.70
2022-08-30T15:52:40.485Z,3.20
2022-08-30T15:55:10.409Z,3.60
2022-08-30T15:57:39.953Z,3.10
2022-08-30T16:00:11.244Z,3.70
2022-08-30T16:02:39.164Z,3.50
2022-08-30T16:05:10.288Z,3.30
2022-08-30T16:07:40.951Z,3.60
2022-08-30T16:10:11.575Z,3.40
2022-08-30T16:12:40.599Z,4.00
2022-08-30T16:15:10.931Z,4.10
2022-08-30T16:17:40.086Z,3.60
2022-08-30T16:20:09.864Z,4.10
2022-08-30T16:22:45.769Z,3.90
2022-08-30T16:25:16.144Z,3.60
2022-08-30T16:27:45.988Z,3.60
2022-08-30T16:30:16.121Z,3.60
2022-08-30T16:32:46.401Z,3.60
2022-08-30T16:35:14.468Z,3.80
2022-08-30T16:37:43.239Z,5.80
2022-08-30T16:40:13.313Z,4.20
2022-08-30T16:42:41.404Z,4.10
2022-08-30T16:45:11.888Z,3.70
2022-08-30T16:47:39.866Z,3.50
2022-08-30T16:50:11.971Z,4.00
2022-08-30T16:52:44.023Z,3.40
2022-08-30T16:57:43.599Z,4.10
2022-08-30T17:00:14.178Z,3.70
2022-08-30T17:02:45.260Z,3.70
2022-08-30T17:05:25.718Z,3.70
2022-08-30T17:07:53.694Z,3.30
2022-08-30T17:10:26.279Z,3.50
2022-08-30T17:13:01.813Z,4.40
2022-08-30T17:15:31.427Z,4.10
2022-08-30T17:17:59.661Z,4.20
2022-08-30T17:20:33.422Z,4.40
2022-08-30T17:23:02.088Z,4.20
2022-08-30T17:25:34.127Z,4.00
2022-08-30T17:28:03.915Z,4.40
2022-08-30T17:30:35.083Z,4.70
2022-08-30T17:33:05.022Z,4.30
2022-08-30T17:35:32.794Z,3.80
2022-08-30T17:38:00.782Z,4.10
2022-08-30T17:40:31.733Z,4.20
2022-08-30T17:43:02.969Z,4.30
2022-08-30T17:45:30.763Z,4.10
2022-08-30T17:48:07.079Z,4.20
2022-08-30T17:50:36.013Z,4.20
2022-08-30T17:53:04.997Z,5.50
2022-08-30T17:55:34.529Z,5.30
2022-08-30T17:58:03.916Z,5.50
2022-08-30T18:00:33.737Z,5.60
2022-08-30T18:03:04.863Z,5.30
2022-08-30T18:05:38.410Z,5.50
2022-08-30T18:08:10.909Z,5.50
2022-08-30T18:10:39.269Z,6.80
2022-08-30T18:13:10.309Z,5.10
2022-08-30T18:15:42.114Z,7.40
2022-08-30T18:18:12.991Z,8.10
2022-08-30T18:20:41.056Z,9.20
2022-08-30T18:23:10.679Z,10.10
2022-08-30T18:25:40.324Z,11.20
2022-08-30T18:28:12.503Z,9.20
2022-08-30T18:30:45.398Z,10.10
2022-08-30T18:33:14.780Z,10.70
2022-08-30T18:35:50.582Z,10.20
2022-08-30T18:38:23.043Z,8.20
2022-08-30T18:41:03.220Z,8.40
2022-08-30T18:43:31.273Z,7.50
2022-08-30T18:46:10.422Z,9.20
2022-08-30T18:48:41.272Z,7.70
2022-08-30T18:51:19.499Z,7.40
2022-08-30T18:53:50.290Z,8.10
2022-08-30T18:56:18.097Z,8.00
2022-08-30T18:58:48.299Z,7.90
2022-08-30T19:01:22.636Z,7.50
2022-08-30T19:03:50.803Z,7.90
2022-08-30T19:06:24.164Z,7.60
2022-08-30T19:08:51.932Z,8.10
2022-08-30T19:11:19.775Z,6.80
2022-08-30T19:13:49.858Z,6.40
2022-08-30T19:16:21.125Z,6.60
2022-08-30T19:18:50.756Z,18.80
2022-08-30T19:21:21.424Z,8.20
2022-08-30T19:23:54.960Z,6.70
2022-08-30T19:26:27.498Z,6.80
2022-08-30T19:28:56.333Z,6.70
2022-08-30T19:31:24.112Z,7.10
2022-08-30T19:33:53.744Z,7.40
2022-08-30T19:36:21.603Z,6.30
2022-08-30T19:38:49.519Z,7.40
2022-08-30T19:41:17.476Z,7.50
2022-08-30T19:43:49.203Z,8.20
2022-08-30T19:46:17.914Z,7.40
2022-08-30T19:48:46.195Z,7.90
2022-08-30T19:51:15.736Z,8.30
2022-08-30T19:53:45.612Z,7.90
2022-08-30T19:56:15.220Z,7.70
2022-08-30T19:58:44.902Z,7.60
2022-08-30T20:01:33.066Z,7.80
2022-08-30T20:04:04.084Z,8.40
2022-08-30T20:06:33.989Z,8.60
2022-08-30T20:09:10.570Z,8.30
2022-08-30T20:11:42.295Z,8.30
2022-08-30T20:14:13.514Z,8.50
2022-08-30T20:16:45.941Z,7.60
2022-08-30T20:19:18.443Z,8.50
2022-08-30T20:21:50.983Z,7.40
2022-08-30T20:24:25.488Z,8.40
2022-08-30T20:26:55.292Z,7.40
2022-08-30T20:29:25.379Z,7.20
2022-08-30T20:31:54.673Z,7.70
2022-08-30T20:34:27.675Z,7.00
2022-08-30T20:36:59.603Z,7.10
2022-08-30T20:39:27.761Z,6.90
2022-08-30T20:41:59.008Z,7.20
2022-08-30T20:44:27.076Z,6.20
2022-08-30T20:46:56.954Z,6.10
2022-08-30T20:49:25.038Z,6.50
2022-08-30T20:51:54.813Z,6.10
2022-08-30T20:54:23.464Z,6.00
2022-08-30T20:56:55.225Z,6.30
2022-08-30T20:59:23.028Z,6.30
2022-08-30T21:01:58.546Z,6.10
2022-08-30T21:04:31.753Z,6.30
2022-08-30T21:07:03.994Z,6.60
2022-08-30T21:09:31.786Z,6.60
2022-08-30T21:11:59.583Z,5.80
2022-08-30T21:14:27.554Z,7.50
2022-08-30T21:16:58.588Z,7.10
2022-08-30T21:19:33.149Z,7.20
2022-08-30T21:22:05.830Z,6.40
2022-08-30T21:24:35.029Z,6.90
2022-08-30T21:27:04.226Z,6.30
2022-08-30T21:29:34.498Z,7.00
2022-08-30T21:32:03.669Z,5.90
2022-08-30T21:34:57.289Z,6.50
2022-08-30T21:37:31.098Z,5.80
2022-08-30T21:40:11.302Z,5.90
2022-08-30T21:42:47.362Z,6.30
2022-08-30T21:45:17.492Z,5.90
2022-08-30T21:47:45.415Z,6.20
2022-08-30T21:50:13.519Z,5.50
2022-08-30T21:52:43.782Z,6.50
2022-08-30T21:55:14.343Z,5.80
2022-08-30T21:57:44.048Z,6.10
2022-08-30T22:00:20.454Z,5.50
2022-08-30T22:02:49.236Z,6.70
2022-08-30T22:05:21.316Z,5.30
2022-08-30T22:07:51.488Z,6.30
2022-08-30T22:10:21.577Z,5.60
2022-08-30T22:12:49.782Z,5.30
2022-08-30T22:15:18.978Z,5.50
2022-08-30T22:17:47.357Z,4.70
2022-08-30T22:20:18.490Z,5.30
2022-08-30T22:22:47.032Z,5.40
2022-08-30T22:25:15.872Z,5.30
2022-08-30T22:27:44.047Z,4.90
2022-08-30T22:30:13.300Z,5.10
2022-08-30T22:32:41.720Z,5.00
2022-08-30T22:35:11.050Z,4.90
2022-08-30T22:37:39.443Z,4.70
2022-08-30T22:40:08.368Z,4.70
2022-08-30T22:42:38.601Z,4.90
2022-08-30T22:45:08.038Z,5.20
2022-08-30T22:47:39.055Z,4.80
2022-08-30T22:50:08.573Z,5.00
2022-08-30T22:52:37.965Z,5.20
2022-08-30T22:55:07.262Z,5.10
2022-08-30T22:57:38.409Z,4.70
2022-08-30T23:00:12.931Z,4.30
2022-08-30T23:02:50.350Z,4.90
2022-08-30T23:05:21.511Z,5.00
2022-08-30T23:07:53.125Z,5.10
2022-08-30T23:10:28.644Z,5.30
2022-08-30T23:12:58.301Z,4.50
2022-08-30T23:15:29.891Z,5.20
2022-08-30T23:17:58.201Z,5.20
2022-08-30T23:20:26.706Z,4.80
2022-08-30T23:22:58.217Z,4.80
2022-08-30T23:25:51.852Z,4.50
2022-08-30T23:28:41.198Z,4.40
2022-08-30T23:31:37.027Z,4.40
2022-08-30T23:34:26.055Z,4.20
2022-08-30T23:37:12.776Z,4.30
2022-08-30T23:39:59.560Z,4.30
2022-08-30T23:42:47.316Z,4.00
2022-08-30T23:45:34.518Z,4.00
2022-08-30T23:48:25.135Z,4.00
2022-08-30T23:51:11.699Z,4.20
2022-08-30T23:54:12.054Z,3.80
2022-08-30T23:57:00.432Z,4.10
2022-08-30T23:59:48.570Z,4.00
